Time;durP1;ratioP1;P1;durP2;ratioP2;P2;SDS_P1;SDS_P2;PMS_P1;PMS_P2;Temp;Humidity;BMP_temperature;BMP_pressure;BME280_temperature;BME280_humidity;BME280_pressure;Samples;Min_cycle;Max_cycle;Signal;HPM_P1;HPM_P2
2023/06/08 00:01:52;;;;;;;6.05;5.47;;;23.80;52.60;;;;;;4970301;28;88296;-84
2023/06/08 00:04:18;;;;;;;5.38;4.88;;;23.80;52.60;;;;;;4961557;28;87482;-90
2023/06/08 00:06:44;;;;;;;5.78;5.22;;;23.80;52.50;;;;;;4970051;28;86949;-85
2023/06/08 00:09:10;;;;;;;6.20;5.60;;;23.80;52.60;;;;;;4969083;28;88886;-86
2023/06/08 00:11:37;;;;;;;6.10;5.50;;;23.80;52.50;;;;;;4969628;28;88201;-85
2023/06/08 00:14:03;;;;;;;6.82;5.65;;;23.80;52.50;;;;;;4969236;28;88518;-83
2023/06/08 00:16:29;;;;;;;5.90;5.30;;;23.80;52.30;;;;;;4969349;28;87438;-85
2023/06/08 00:18:56;;;;;;;5.35;4.85;;;23.80;52.50;;;;;;4970442;28;88093;-84
2023/06/08 00:21:26;;;;;;;5.80;5.30;;;23.80;52.50;;;;;;4967542;28;88566;-82
2023/06/08 00:23:52;;;;;;;6.10;5.50;;;23.80;52.40;;;;;;4968673;28;87159;-84
2023/06/08 00:26:18;;;;;;;5.82;5.25;;;23.80;52.60;;;;;;4968950;28;87868;-84
2023/06/08 00:28:47;;;;;;;6.03;5.43;;;23.80;52.40;;;;;;4968894;28;87524;-89
2023/06/08 00:31:12;;;;;;;6.15;5.35;;;23.80;52.60;;;;;;4969840;28;88388;-85
2023/06/08 00:33:38;;;;;;;5.72;5.22;;;23.80;52.50;;;;;;4968932;28;87819;-88
2023/06/08 00:36:04;;;;;;;5.40;4.90;;;23.80;52.60;;;;;;4969556;28;87579;-81
2023/06/08 00:38:31;;;;;;;6.13;5.45;;;23.80;52.60;;;;;;4967823;28;89084;-86
2023/06/08 00:40:56;;;;;;;5.43;4.93;;;23.80;52.40;;;;;;4968509;28;88668;-90
2023/06/08 00:43:22;;;;;;;5.82;5.30;;;23.80;52.40;;;;;;4970264;28;87283;-86
2023/06/08 00:45:48;;;;;;;6.35;5.45;;;23.80;52.40;;;;;;4969294;28;87566;-83
2023/06/08 00:48:15;;;;;;;6.43;4.53;;;23.80;52.60;;;;;;4966347;28;87959;-83
2023/06/08 00:50:41;;;;;;;4.85;4.45;;;23.80;52.50;;;;;;4967351;28;87223;-88
2023/06/08 00:53:07;;;;;;;5.28;4.78;;;23.80;52.50;;;;;;4967878;28;87327;-88
2023/06/08 00:55:33;;;;;;;4.93;4.50;;;23.70;52.60;;;;;;4969049;28;87022;-85
2023/06/08 00:58:00;;;;;;;4.95;4.55;;;23.80;52.40;;;;;;4969178;28;88226;-87
2023/06/08 01:00:28;;;;;;;5.15;4.65;;;23.80;52.50;;;;;;4963240;28;90031;-88
2023/06/08 01:02:55;;;;;;;5.43;4.93;;;23.70;52.50;;;;;;4969142;28;87936;-88
2023/06/08 01:05:21;;;;;;;5.32;4.82;;;23.70;52.70;;;;;;4960707;28;88367;-88
2023/06/08 01:08:02;;;;;;;4.90;4.45;;;23.80;52.50;;;;;;4967779;28;89446;-89
2023/06/08 01:10:37;;;;;;;5.80;5.30;;;23.80;52.40;;;;;;4969345;28;88002;-85
2023/06/08 01:13:10;;;;;;;5.25;4.78;;;23.70;52.50;;;;;;4968851;28;88033;-85
2023/06/08 01:15:42;;;;;;;5.40;4.90;;;23.70;52.40;;;;;;4969588;28;87407;-87
2023/06/08 01:18:09;;;;;;;5.13;4.63;;;23.70;52.50;;;;;;4968686;28;88470;-86
2023/06/08 01:20:53;;;;;;;5.15;4.75;;;23.70;52.60;;;;;;4970160;28;86684;-83
2023/06/08 01:23:44;;;;;;;5.40;4.90;;;23.70;52.50;;;;;;4969613;28;86922;-88
2023/06/08 01:26:15;;;;;;;5.45;4.95;;;23.70;52.50;;;;;;4969683;28;87630;-89
2023/06/08 01:28:41;;;;;;;5.25;4.75;;;23.70;52.40;;;;;;4967497;28;88963;-84
2023/06/08 01:31:07;;;;;;;5.35;4.82;;;23.70;52.30;;;;;;4969144;28;89416;-88
2023/06/08 01:33:33;;;;;;;5.70;5.20;;;23.70;52.40;;;;;;4962783;28;87761;-84
2023/06/08 01:36:15;;;;;;;5.57;5.07;;;23.70;52.50;;;;;;4972180;28;88319;-88
2023/06/08 01:39:00;;;;;;;5.95;5.20;;;23.70;52.40;;;;;;4971710;28;87663;-88
2023/06/08 01:41:31;;;;;;;5.60;5.10;;;23.70;52.50;;;;;;4970765;28;88024;-83
2023/06/08 01:43:58;;;;;;;5.85;5.18;;;23.70;52.40;;;;;;4971997;28;87535;-91
2023/06/08 01:46:25;;;;;;;5.45;4.70;;;23.70;52.40;;;;;;4972079;28;86705;-85
2023/06/08 01:48:53;;;;;;;5.65;5.13;;;23.70;52.40;;;;;;4972590;28;88556;-86
2023/06/08 01:51:19;;;;;;;5.30;4.80;;;23.70;52.50;;;;;;4970808;28;87933;-87
2023/06/08 01:53:45;;;;;;;5.53;5.03;;;23.70;52.60;;;;;;4971372;28;88690;-91
2023/06/08 01:56:11;;;;;;;6.13;5.30;;;23.70;52.50;;;;;;4971827;28;87690;-84
2023/06/08 01:58:36;;;;;;;5.47;4.97;;;23.70;52.40;;;;;;4969607;28;87726;-85
2023/06/08 02:01:02;;;;;;;6.07;5.47;;;23.70;52.40;;;;;;4971877;28;87719;-83
2023/06/08 02:03:28;;;;;;;5.20;4.65;;;23.70;52.30;;;;;;4970771;28;87805;-88
2023/06/08 02:05:53;;;;;;;5.50;4.80;;;23.70;52.40;;;;;;4970132;28;87517;-82
2023/06/08 02:08:19;;;;;;;5.15;4.65;;;23.60;52.40;;;;;;4969708;28;90699;-82
2023/06/08 02:10:45;;;;;;;6.05;5.07;;;23.70;52.60;;;;;;4972413;28;87527;-86
2023/06/08 02:13:10;;;;;;;5.07;4.57;;;23.70;52.50;;;;;;4972022;28;87801;-88
2023/06/08 02:15:36;;;;;;;5.80;5.22;;;23.70;52.50;;;;;;4970901;28;87644;-83
2023/06/08 02:18:01;;;;;;;5.53;5.03;;;23.60;52.40;;;;;;4969497;28;88604;-84
2023/06/08 02:20:27;;;;;;;5.60;4.85;;;23.70;52.40;;;;;;4970057;28;88396;-87
2023/06/08 02:22:53;;;;;;;4.60;4.20;;;23.60;52.30;;;;;;4971856;28;87232;-90
2023/06/08 02:25:18;;;;;;;5.50;5.00;;;23.60;52.40;;;;;;4972216;28;88064;-89
2023/06/08 02:27:44;;;;;;;5.28;4.82;;;23.60;52.50;;;;;;4970446;28;87617;-91
2023/06/08 02:30:11;;;;;;;5.00;4.55;;;23.60;52.50;;;;;;4971141;28;87399;-91
2023/06/08 02:32:41;;;;;;;5.15;4.68;;;23.60;52.50;;;;;;4971048;28;87422;-90
2023/06/08 02:35:07;;;;;;;5.03;4.53;;;23.60;52.40;;;;;;4971835;28;86893;-86
2023/06/08 02:37:36;;;;;;;5.57;5.03;;;23.60;52.50;;;;;;4970713;28;87819;-85
2023/06/08 02:40:04;;;;;;;4.83;4.43;;;23.60;52.50;;;;;;4967205;28;88937;-89
2023/06/08 02:42:29;;;;;;;5.68;5.05;;;23.60;52.60;;;;;;4969475;28;88107;-83
2023/06/08 02:44:55;;;;;;;5.30;4.80;;;23.60;52.50;;;;;;4970162;28;87263;-88
2023/06/08 02:47:21;;;;;;;4.88;4.47;;;23.60;52.50;;;;;;4971032;28;87568;-86
2023/06/08 02:49:46;;;;;;;5.30;4.80;;;23.60;52.50;;;;;;4972350;28;87873;-86
2023/06/08 02:52:12;;;;;;;5.07;4.60;;;23.60;52.60;;;;;;4971834;28;88005;-88
2023/06/08 02:54:37;;;;;;;5.63;5.10;;;23.50;52.40;;;;;;4961836;28;87896;-82
2023/06/08 02:57:03;;;;;;;5.57;4.85;;;23.60;52.50;;;;;;4970960;28;87568;-89
2023/06/08 02:59:31;;;;;;;4.55;4.18;;;23.50;52.50;;;;;;4970953;28;88285;-87
2023/06/08 03:01:57;;;;;;;5.63;4.80;;;23.50;52.60;;;;;;4971515;28;87436;-89
2023/06/08 03:04:24;;;;;;;4.78;4.35;;;23.50;52.50;;;;;;4971748;28;87543;-88
2023/06/08 03:06:53;;;;;;;4.82;4.43;;;23.50;52.50;;;;;;4966178;28;89612;-88
2023/06/08 03:09:29;;;;;;;5.28;4.78;;;23.50;52.30;;;;;;4968921;28;89568;-81
2023/06/08 03:11:56;;;;;;;5.72;4.97;;;23.50;52.50;;;;;;4970520;28;87593;-89
2023/06/08 03:14:28;;;;;;;5.15;4.75;;;23.50;52.60;;;;;;4963614;28;88723;-88
2023/06/08 03:17:02;;;;;;;5.35;4.95;;;23.50;52.60;;;;;;4968922;28;88730;-84
2023/06/08 03:19:30;;;;;;;5.13;4.68;;;23.50;52.70;;;;;;4969556;28;88338;-84
2023/06/08 03:21:58;;;;;;;6.03;4.75;;;23.50;52.60;;;;;;4970614;28;87536;-88
2023/06/08 03:24:24;;;;;;;5.35;4.85;;;23.40;52.60;;;;;;4969684;28;86944;-83
2023/06/08 03:26:49;;;;;;;5.22;4.80;;;23.50;52.50;;;;;;4970437;28;87925;-88
2023/06/08 03:29:15;;;;;;;4.90;4.50;;;23.40;52.50;;;;;;4969195;28;87876;-88
2023/06/08 03:31:41;;;;;;;5.40;4.90;;;23.50;52.80;;;;;;4969885;28;88353;-89
2023/06/08 03:34:06;;;;;;;5.00;4.60;;;23.50;52.50;;;;;;4970810;28;87504;-89
2023/06/08 03:36:35;;;;;;;5.10;4.70;;;23.50;52.60;;;;;;4969502;28;88255;-87
2023/06/08 03:39:02;;;;;;;4.97;4.47;;;23.50;52.70;;;;;;4964402;28;90694;-84
2023/06/08 03:41:28;;;;;;;5.32;4.78;;;23.50;52.60;;;;;;4968889;28;87800;-87
2023/06/08 03:43:54;;;;;;;4.72;4.30;;;23.50;52.60;;;;;;4969259;28;87502;-80
2023/06/08 03:46:20;;;;;;;4.90;4.40;;;23.40;52.40;;;;;;4969267;28;88082;-90
2023/06/08 03:48:47;;;;;;;4.88;4.45;;;23.40;52.50;;;;;;4970799;28;88185;-87
2023/06/08 03:51:13;;;;;;;5.38;4.88;;;23.50;52.60;;;;;;4970119;28;87530;-81
2023/06/08 03:53:39;;;;;;;5.10;4.70;;;23.40;52.60;;;;;;4967168;28;88678;-86
2023/06/08 03:56:05;;;;;;;5.47;4.97;;;23.40;52.80;;;;;;4962953;28;90176;-90
2023/06/08 03:58:32;;;;;;;5.97;4.68;;;23.40;52.70;;;;;;4969742;28;88979;-88
2023/06/08 04:00:58;;;;;;;5.10;4.60;;;23.40;52.70;;;;;;4971527;28;87950;-90
2023/06/08 04:03:25;;;;;;;4.70;4.30;;;23.40;52.50;;;;;;4970183;28;87244;-90
2023/06/08 04:05:51;;;;;;;5.18;4.68;;;23.40;52.70;;;;;;4968917;28;87897;-87
2023/06/08 04:08:17;;;;;;;4.55;4.15;;;23.40;52.70;;;;;;4969852;28;87916;-85
2023/06/08 04:10:44;;;;;;;5.03;4.63;;;23.40;52.70;;;;;;4969631;28;88046;-85
2023/06/08 04:13:10;;;;;;;4.85;4.45;;;23.40;52.70;;;;;;4970895;28;87944;-86
2023/06/08 04:15:36;;;;;;;4.28;3.88;;;23.40;52.60;;;;;;4968768;28;87590;-91
2023/06/08 04:18:02;;;;;;;5.03;4.53;;;23.40;52.60;;;;;;4968727;28;87805;-82
2023/06/08 04:20:28;;;;;;;5.25;4.85;;;23.40;52.50;;;;;;4969449;28;88436;-87
2023/06/08 04:22:53;;;;;;;5.45;4.95;;;23.40;52.40;;;;;;4969676;28;87357;-87
2023/06/08 04:25:19;;;;;;;4.93;4.40;;;23.40;52.30;;;;;;4969919;28;88112;-85
2023/06/08 04:27:46;;;;;;;4.93;4.53;;;23.40;52.40;;;;;;4969275;28;87568;-84
2023/06/08 04:30:12;;;;;;;4.38;4.00;;;23.40;52.50;;;;;;4969631;28;87364;-90
2023/06/08 04:32:38;;;;;;;4.68;4.28;;;23.40;52.40;;;;;;4968362;28;87627;-91
2023/06/08 04:35:04;;;;;;;5.30;4.80;;;23.40;52.50;;;;;;4968988;28;88022;-85
2023/06/08 04:37:30;;;;;;;4.93;4.53;;;23.50;52.70;;;;;;4967302;28;87628;-82
2023/06/08 04:39:56;;;;;;;4.63;4.30;;;23.50;52.40;;;;;;4969698;28;87531;-90
2023/06/08 04:42:27;;;;;;;7.25;4.30;;;23.50;52.40;;;;;;4961246;28;88333;-89
2023/06/08 04:44:53;;;;;;;4.55;4.15;;;23.50;52.40;;;;;;4969153;28;91240;-87
2023/06/08 04:47:19;;;;;;;4.38;3.97;;;23.50;52.40;;;;;;4962391;28;91645;-85
2023/06/08 04:49:45;;;;;;;4.50;4.10;;;23.50;52.20;;;;;;4969365;28;87429;-91
2023/06/08 04:52:13;;;;;;;4.80;4.40;;;23.50;52.30;;;;;;4970844;28;88009;-81
2023/06/08 04:54:39;;;;;;;4.40;3.97;;;23.50;52.10;;;;;;4968041;28;89725;-82
2023/06/08 04:57:09;;;;;;;4.70;4.30;;;23.60;52.10;;;;;;4960670;28;89983;-84
2023/06/08 04:59:37;;;;;;;4.20;3.85;;;23.60;52.30;;;;;;4968960;28;87411;-92
2023/06/08 05:02:03;;;;;;;4.70;4.27;;;23.60;52.00;;;;;;4969174;28;87124;-88
2023/06/08 05:04:29;;;;;;;5.25;4.75;;;23.60;52.00;;;;;;4969020;28;88532;-83
2023/06/08 05:06:55;;;;;;;4.57;4.18;;;23.60;51.80;;;;;;4968785;28;87934;-86
2023/06/08 05:09:20;;;;;;;4.95;4.45;;;23.60;51.80;;;;;;4971537;28;88215;-87
2023/06/08 05:11:47;;;;;;;5.15;4.65;;;23.70;51.90;;;;;;4973203;28;87472;-88
2023/06/08 05:14:12;;;;;;;4.78;4.38;;;23.70;51.80;;;;;;4978784;28;89841;-87
2023/06/08 05:16:38;;;;;;;4.28;3.92;;;23.70;51.90;;;;;;4984234;28;88317;-91
2023/06/08 05:19:11;;;;;;;4.63;4.22;;;23.70;51.80;;;;;;4993537;28;87445;-85
2023/06/08 05:21:39;;;;;;;4.18;3.78;;;23.70;51.70;;;;;;4991902;28;87649;-86
2023/06/08 05:24:06;;;;;;;4.40;4.00;;;23.80;51.80;;;;;;4979478;28;88232;-87
2023/06/08 05:26:32;;;;;;;5.18;4.68;;;23.80;51.70;;;;;;4972077;28;86810;-93
2023/06/08 05:28:57;;;;;;;4.00;3.70;;;23.80;51.80;;;;;;4970801;28;93095;-82
2023/06/08 05:31:23;;;;;;;4.97;4.47;;;23.80;51.80;;;;;;4963940;28;87983;-86
2023/06/08 05:33:49;;;;;;;4.63;4.28;;;23.80;51.90;;;;;;4972103;28;88908;-87
2023/06/08 05:36:14;;;;;;;4.65;4.25;;;23.80;51.60;;;;;;4971940;28;88258;-86
2023/06/08 05:38:40;;;;;;;4.53;4.13;;;23.80;51.70;;;;;;4972002;28;87546;-85
2023/06/08 05:41:06;;;;;;;4.28;3.88;;;23.90;51.80;;;;;;4969998;28;87349;-85
2023/06/08 05:43:32;;;;;;;4.32;3.92;;;23.90;51.70;;;;;;4968985;28;87841;-84
2023/06/08 05:45:57;;;;;;;4.30;3.90;;;23.90;51.50;;;;;;4969183;28;89526;-86
2023/06/08 05:48:23;;;;;;;6.07;4.47;;;23.90;51.50;;;;;;4968640;28;87624;-87
2023/06/08 05:50:49;;;;;;;5.18;3.80;;;23.90;51.30;;;;;;4970278;28;88204;-85
2023/06/08 05:53:14;;;;;;;6.47;4.90;;;23.80;51.20;;;;;;4969910;28;87473;-86
2023/06/08 05:55:41;;;;;;;7.65;4.78;;;23.80;51.30;;;;;;4967980;28;88091;-84
2023/06/08 05:58:08;;;;;;;4.75;3.88;;;23.80;51.30;;;;;;4966521;28;88556;-83
2023/06/08 06:00:33;;;;;;;9.00;4.65;;;23.90;51.40;;;;;;4965257;28;87443;-83
2023/06/08 06:02:59;;;;;;;12.68;5.32;;;23.90;51.10;;;;;;4963933;28;90608;-85
2023/06/08 06:05:25;;;;;;;7.38;4.93;;;23.90;51.20;;;;;;4964897;28;88464;-84
2023/06/08 06:07:50;;;;;;;6.63;5.00;;;23.90;51.40;;;;;;4965597;28;87672;-83
2023/06/08 06:10:16;;;;;;;9.93;5.32;;;23.90;51.40;;;;;;4965103;28;89003;-84
2023/06/08 06:12:42;;;;;;;9.63;5.53;;;23.80;50.90;;;;;;4965208;28;87860;-86
2023/06/08 06:15:08;;;;;;;13.05;5.88;;;23.90;50.90;;;;;;4953048;28;89887;-83
2023/06/08 06:17:34;;;;;;;12.52;6.47;;;23.80;50.20;;;;;;4964218;28;87677;-86
2023/06/08 06:19:59;;;;;;;11.27;6.40;;;23.70;49.60;;;;;;4963956;28;87527;-85
2023/06/08 06:22:25;;;;;;;12.57;5.90;;;23.60;49.60;;;;;;4965767;28;89412;-83
2023/06/08 06:24:51;;;;;;;16.40;6.13;;;23.60;50.00;;;;;;4964381;28;88691;-83
2023/06/08 06:27:25;;;;;;;13.55;6.30;;;23.50;50.10;;;;;;4949124;28;88219;-82
2023/06/08 06:29:51;;;;;;;13.13;6.25;;;23.70;50.20;;;;;;4978415;28;88122;-82
2023/06/08 06:32:17;;;;;;;18.48;6.72;;;23.70;50.20;;;;;;4980777;28;87733;-84
2023/06/08 06:34:46;;;;;;;13.00;5.85;;;23.60;49.90;;;;;;4981679;28;87795;-84
2023/06/08 06:37:11;;;;;;;14.40;6.57;;;23.60;49.80;;;;;;4980868;28;88011;-85
2023/06/08 06:39:37;;;;;;;13.82;6.35;;;23.60;50.00;;;;;;4979282;28;87290;-84
2023/06/08 06:42:03;;;;;;;12.32;6.80;;;23.50;50.00;;;;;;4979233;28;88206;-83
2023/06/08 06:44:28;;;;;;;12.35;5.97;;;23.60;50.20;;;;;;4980520;28;87738;-83
2023/06/08 06:46:54;;;;;;;9.52;5.50;;;23.60;50.20;;;;;;4980376;28;89212;-83
2023/06/08 06:49:20;;;;;;;14.45;6.20;;;23.70;50.10;;;;;;4982537;28;87319;-81
2023/06/08 06:51:45;;;;;;;12.73;6.30;;;23.70;49.90;;;;;;4981994;28;87820;-84
2023/06/08 06:54:11;;;;;;;11.00;5.63;;;23.70;50.00;;;;;;4974865;28;87835;-83
2023/06/08 06:56:36;;;;;;;15.75;6.05;;;23.60;50.30;;;;;;4984502;28;87207;-84
2023/06/08 06:59:03;;;;;;;8.80;5.53;;;23.70;50.40;;;;;;4983549;28;87505;-84
2023/06/08 07:01:30;;;;;;;13.88;6.50;;;23.60;50.40;;;;;;4985189;28;87827;-83
2023/06/08 07:03:56;;;;;;;13.77;6.55;;;23.70;50.40;;;;;;4984427;28;87284;-84
2023/06/08 07:06:24;;;;;;;12.88;6.10;;;23.70;50.30;;;;;;4980567;28;87778;-85
2023/06/08 07:08:50;;;;;;;11.65;6.35;;;23.70;50.30;;;;;;4975349;28;87944;-83
2023/06/08 07:11:16;;;;;;;12.35;6.50;;;23.80;50.50;;;;;;4981112;28;90787;-85
2023/06/08 07:13:41;;;;;;;13.95;6.10;;;23.70;50.40;;;;;;4973861;28;91348;-84
2023/06/08 07:16:07;;;;;;;16.35;6.65;;;23.70;50.50;;;;;;4986609;28;87709;-87
2023/06/08 07:18:32;;;;;;;13.30;6.35;;;23.70;50.50;;;;;;4983225;28;87066;-84
2023/06/08 07:20:58;;;;;;;18.13;7.53;;;23.70;50.70;;;;;;4982483;28;88859;-87
2023/06/08 07:23:24;;;;;;;15.80;6.82;;;23.70;50.70;;;;;;4984372;28;88384;-86
2023/06/08 07:25:50;;;;;;;13.13;6.35;;;23.70;50.70;;;;;;4974007;28;87561;-83
2023/06/08 07:28:16;;;;;;;25.08;7.05;;;23.70;50.70;;;;;;4974028;28;86963;-84
2023/06/08 07:30:42;;;;;;;53.33;13.13;;;23.70;50.80;;;;;;4970404;28;89210;-86
2023/06/08 07:33:07;;;;;;;25.25;7.72;;;23.70;50.90;;;;;;4968578;28;89034;-83
2023/06/08 07:35:33;;;;;;;26.73;8.18;;;23.80;50.70;;;;;;4966015;28;88739;-85
2023/06/08 07:37:59;;;;;;;29.52;9.52;;;23.80;50.90;;;;;;4981425;28;87885;-83
2023/06/08 07:40:24;;;;;;;40.97;10.00;;;23.80;50.90;;;;;;4982786;28;88123;-85
2023/06/08 07:42:51;;;;;;;28.60;9.60;;;23.80;50.90;;;;;;4979879;28;89656;-85
2023/06/08 07:45:17;;;;;;;26.90;8.98;;;23.80;50.70;;;;;;4982080;28;87238;-84
2023/06/08 07:47:43;;;;;;;29.75;9.88;;;23.90;50.90;;;;;;4980152;28;89684;-83
2023/06/08 07:50:10;;;;;;;31.67;11.10;;;23.90;50.80;;;;;;4981942;28;90377;-83
2023/06/08 07:52:36;;;;;;;39.38;11.15;;;23.90;50.70;;;;;;4983578;28;87094;-83
2023/06/08 07:55:02;;;;;;;32.53;10.55;;;23.90;50.70;;;;;;4982674;28;87379;-86
2023/06/08 07:57:29;;;;;;;31.02;10.32;;;23.90;50.70;;;;;;4980959;28;87453;-83
2023/06/08 07:59:55;;;;;;;31.73;9.98;;;23.90;50.80;;;;;;4978948;28;91389;-85
2023/06/08 08:02:21;;;;;;;27.83;9.55;;;24.00;50.80;;;;;;4970534;28;91116;-85
2023/06/08 08:04:46;;;;;;;24.90;9.82;;;24.00;50.80;;;;;;4982577;28;87744;-84
2023/06/08 08:07:12;;;;;;;27.65;9.82;;;24.00;50.70;;;;;;4984372;28;87877;-85
2023/06/08 08:09:41;;;;;;;21.48;9.02;;;23.90;50.60;;;;;;4983537;28;87497;-83
2023/06/08 08:12:11;;;;;;;26.60;8.40;;;24.00;50.50;;;;;;4973751;28;87608;-83
2023/06/08 08:14:37;;;;;;;24.50;8.65;;;24.00;50.50;;;;;;4982754;28;87906;-83
2023/06/08 08:17:03;;;;;;;18.95;8.32;;;24.00;50.50;;;;;;4982966;28;86939;-84
2023/06/08 08:19:29;;;;;;;22.63;8.40;;;24.00;50.70;;;;;;4981833;28;89519;-84
2023/06/08 08:21:54;;;;;;;21.98;7.90;;;24.00;50.80;;;;;;4972248;28;90370;-83
2023/06/08 08:24:20;;;;;;;21.95;8.48;;;24.00;50.60;;;;;;4982291;28;89063;-84
2023/06/08 08:26:46;;;;;;;23.05;8.95;;;24.10;50.60;;;;;;4982563;28;87507;-84
2023/06/08 08:29:11;;;;;;;20.35;8.20;;;24.00;50.50;;;;;;4982524;28;87662;-85
2023/06/08 08:31:37;;;;;;;16.27;7.40;;;24.00;50.70;;;;;;4970068;28;88720;-82
2023/06/08 08:34:02;;;;;;;17.17;7.68;;;24.10;50.50;;;;;;4984288;28;87750;-84
2023/06/08 08:36:28;;;;;;;20.25;7.88;;;24.10;50.60;;;;;;4983361;28;87405;-85
2023/06/08 08:38:54;;;;;;;18.85;8.00;;;24.00;50.60;;;;;;4983546;28;88207;-83
2023/06/08 08:41:21;;;;;;;18.15;7.68;;;24.10;51.20;;;;;;4981406;28;87925;-86
2023/06/08 08:43:52;;;;;;;17.52;8.02;;;24.10;50.70;;;;;;4977535;28;87621;-83
2023/06/08 08:46:21;;;;;;;22.13;8.10;;;24.10;50.60;;;;;;4971103;28;89069;-84
2023/06/08 08:48:53;;;;;;;15.75;7.13;;;24.20;50.60;;;;;;4981111;28;88983;-84
2023/06/08 08:51:19;;;;;;;15.70;7.30;;;24.30;50.60;;;;;;4981954;28;88710;-86
2023/06/08 08:53:50;;;;;;;14.93;6.93;;;24.30;50.20;;;;;;4974215;28;87316;-85
2023/06/08 08:56:25;;;;;;;15.93;7.70;;;24.30;50.70;;;;;;4982961;28;87468;-86
2023/06/08 08:58:52;;;;;;;14.75;7.07;;;24.30;50.90;;;;;;4976609;28;88849;-86
2023/06/08 09:01:18;;;;;;;17.67;7.45;;;24.30;51.20;;;;;;4985948;28;88398;-86
2023/06/08 09:03:45;;;;;;;19.02;8.57;;;24.40;51.10;;;;;;4984954;28;87772;-87
2023/06/08 09:06:10;;;;;;;13.88;6.60;;;24.40;51.50;;;;;;4982825;28;88059;-84
2023/06/08 09:08:37;;;;;;;11.98;7.65;;;24.40;51.50;;;;;;4985177;28;87493;-84
2023/06/08 09:11:07;;;;;;;12.50;7.53;;;24.40;51.80;;;;;;4986212;28;88114;-89
2023/06/08 09:13:34;;;;;;;13.02;7.05;;;24.30;51.60;;;;;;4984294;28;87925;-84
2023/06/08 09:16:10;;;;;;;13.13;6.53;;;24.30;51.50;;;;;;4987474;28;87828;-83
2023/06/08 09:18:36;;;;;;;9.98;6.07;;;24.30;51.60;;;;;;4985178;28;87574;-88
2023/06/08 09:21:27;;;;;;;15.95;6.78;;;24.30;51.70;;;;;;4974336;28;89989;-86
2023/06/08 09:24:14;;;;;;;13.82;6.93;;;24.30;51.70;;;;;;4986563;28;87230;-83
2023/06/08 09:26:53;;;;;;;12.45;6.60;;;24.40;51.70;;;;;;4984956;28;87423;-86
2023/06/08 09:29:45;;;;;;;11.75;6.35;;;24.40;51.60;;;;;;4986442;28;87609;-81
2023/06/08 09:32:16;;;;;;;13.05;6.45;;;24.40;51.70;;;;;;4985294;28;90255;-89
2023/06/08 09:35:01;;;;;;;11.32;5.85;;;24.40;51.90;;;;;;4985786;28;87669;-89
2023/06/08 09:37:29;;;;;;;15.35;6.47;;;24.40;52.10;;;;;;4987913;28;87823;-91
2023/06/08 09:39:55;;;;;;;17.60;6.70;;;24.50;51.90;;;;;;4985862;28;94416;-82
2023/06/08 09:42:22;;;;;;;12.88;6.35;;;24.50;52.10;;;;;;4984803;28;88351;-90
2023/06/08 09:44:47;;;;;;;15.48;5.75;;;24.50;52.00;;;;;;4986888;28;87561;-89
2023/06/08 09:47:22;;;;;;;12.25;6.72;;;24.60;51.80;;;;;;4987433;28;87120;-86
2023/06/08 09:49:50;;;;;;;11.65;6.35;;;24.60;51.80;;;;;;4985810;28;89403;-91
2023/06/08 09:52:21;;;;;;;14.57;6.88;;;24.60;51.70;;;;;;4987466;28;89324;-90
2023/06/08 09:54:46;;;;;;;13.00;6.53;;;24.60;51.70;;;;;;4990190;28;87516;-89
2023/06/08 09:57:15;;;;;;;10.00;6.25;;;24.60;51.70;;;;;;4991111;28;87173;-89
2023/06/08 09:59:53;;;;;;;11.43;6.00;;;24.60;51.70;;;;;;4992300;28;87559;-88
2023/06/08 10:02:23;;;;;;;9.80;5.75;;;24.60;51.80;;;;;;4991958;28;88273;-86
2023/06/08 10:04:54;;;;;;;13.40;6.72;;;24.60;51.80;;;;;;4988303;28;88446;-89
2023/06/08 10:07:26;;;;;;;11.25;6.57;;;24.60;51.90;;;;;;4989827;28;87570;-86
2023/06/08 10:09:59;;;;;;;11.25;5.55;;;24.60;51.80;;;;;;4991029;28;87630;-89
2023/06/08 10:12:28;;;;;;;9.50;5.28;;;24.60;51.80;;;;;;4991226;28;87309;-83
2023/06/08 10:14:56;;;;;;;11.88;5.88;;;24.60;51.70;;;;;;4989722;28;87201;-83
2023/06/08 10:17:23;;;;;;;10.05;5.47;;;24.60;51.90;;;;;;4988965;28;87324;-90
2023/06/08 10:19:52;;;;;;;8.77;5.47;;;24.60;52.00;;;;;;4989037;28;88939;-84
2023/06/08 10:22:18;;;;;;;8.38;5.40;;;24.50;51.90;;;;;;4990490;28;90012;-89
2023/06/08 10:24:46;;;;;;;8.32;5.50;;;24.60;51.90;;;;;;4989095;28;87903;-84
2023/06/08 10:27:34;;;;;;;13.25;6.18;;;24.60;52.00;;;;;;4990039;28;87789;-86
2023/06/08 10:30:01;;;;;;;8.23;5.72;;;24.50;52.00;;;;;;4990828;28;88528;-85
2023/06/08 10:32:34;;;;;;;10.25;5.38;;;24.50;52.00;;;;;;4990429;28;88108;-87
2023/06/08 10:35:05;;;;;;;11.07;5.80;;;24.50;52.00;;;;;;4989616;28;87798;-84
2023/06/08 10:37:32;;;;;;;12.75;5.72;;;24.60;52.10;;;;;;4986343;28;87624;-83
2023/06/08 10:39:59;;;;;;;9.98;5.72;;;24.60;52.20;;;;;;4975535;28;91226;-87
2023/06/08 10:42:26;;;;;;;7.13;5.32;;;24.60;52.00;;;;;;4982090;28;89022;-87
2023/06/08 10:44:56;;;;;;;8.65;5.40;;;24.60;52.10;;;;;;4984768;28;88288;-82
2023/06/08 10:47:22;;;;;;;11.95;5.28;;;24.60;52.00;;;;;;4985578;28;87962;-84
2023/06/08 10:49:57;;;;;;;11.45;5.63;;;24.60;51.90;;;;;;4982112;28;88119;-84
2023/06/08 10:52:23;;;;;;;11.35;5.55;;;24.60;51.90;;;;;;4982720;28;88781;-82
2023/06/08 10:54:53;;;;;;;8.77;5.35;;;24.60;52.00;;;;;;4982807;28;88350;-83
2023/06/08 10:57:49;;;;;;;9.50;5.50;;;24.60;51.90;;;;;;4982731;28;87888;-88
2023/06/08 11:00:29;;;;;;;11.75;5.50;;;24.50;52.00;;;;;;4980126;28;88570;-87
2023/06/08 11:03:16;;;;;;;9.35;5.38;;;24.50;52.00;;;;;;4982093;28;88288;-85
2023/06/08 11:05:44;;;;;;;8.18;5.65;;;24.60;51.70;;;;;;4982970;28;88710;-82
2023/06/08 11:08:10;;;;;;;9.47;5.67;;;24.50;52.00;;;;;;4982092;28;87757;-86
2023/06/08 11:10:39;;;;;;;9.18;5.20;;;24.50;52.10;;;;;;4979938;28;88179;-83
2023/06/08 11:13:08;;;;;;;11.32;5.10;;;24.50;52.10;;;;;;4981442;28;88297;-83
2023/06/08 11:15:36;;;;;;;8.10;5.05;;;24.50;52.10;;;;;;4984027;28;88988;-82
2023/06/08 11:18:03;;;;;;;6.80;4.68;;;24.50;52.20;;;;;;4985683;28;87972;-84
2023/06/08 11:20:30;;;;;;;7.95;5.13;;;24.50;52.20;;;;;;4983670;28;89608;-86
2023/06/08 11:22:56;;;;;;;7.18;4.95;;;24.50;51.90;;;;;;4985232;28;88685;-81
2023/06/08 11:25:23;;;;;;;7.80;4.90;;;24.50;51.90;;;;;;4984580;28;88235;-83
2023/06/08 11:27:53;;;;;;;8.25;4.45;;;24.50;51.80;;;;;;4983593;28;87639;-88
2023/06/08 11:30:25;;;;;;;9.25;5.18;;;24.50;51.60;;;;;;4984895;28;87746;-83
2023/06/08 11:32:51;;;;;;;6.25;4.65;;;24.50;51.50;;;;;;5000814;28;90807;-85
2023/06/08 11:35:18;;;;;;;9.05;5.60;;;24.50;51.30;;;;;;4989982;28;87871;-82
2023/06/08 11:37:44;;;;;;;8.23;4.97;;;24.50;51.00;;;;;;4990090;28;88153;-83
2023/06/08 11:40:14;;;;;;;7.95;5.18;;;24.50;51.10;;;;;;4988969;28;88495;-89
2023/06/08 11:42:41;;;;;;;12.38;4.97;;;24.50;51.00;;;;;;4988625;28;87717;-89
2023/06/08 11:45:09;;;;;;;8.27;4.93;;;24.50;51.10;;;;;;4988733;28;88405;-82
2023/06/08 11:47:35;;;;;;;9.00;4.82;;;24.60;51.20;;;;;;4989608;28;87987;-88
2023/06/08 11:50:03;;;;;;;7.47;4.45;;;24.50;51.10;;;;;;4990326;28;88034;-83
2023/06/08 11:52:30;;;;;;;7.32;4.35;;;24.50;51.20;;;;;;4981455;28;90254;-90
2023/06/08 11:55:01;;;;;;;7.78;4.90;;;24.50;51.10;;;;;;4980609;28;87637;-88
2023/06/08 11:57:49;;;;;;;7.13;4.38;;;24.50;50.90;;;;;;4990442;28;88141;-90
2023/06/08 12:00:22;;;;;;;6.60;4.50;;;24.50;50.80;;;;;;4989021;28;88639;-87
2023/06/08 12:02:49;;;;;;;6.10;4.35;;;24.50;50.70;;;;;;5004995;28;89238;-89
2023/06/08 12:05:21;;;;;;;9.52;4.63;;;24.50;50.80;;;;;;4988699;28;87248;-87
2023/06/08 12:08:11;;;;;;;9.05;4.85;;;24.50;50.70;;;;;;4979789;28;89988;-87
2023/06/08 12:10:42;;;;;;;6.25;3.88;;;24.50;50.80;;;;;;4988957;28;88541;-88
2023/06/08 12:13:18;;;;;;;5.22;3.80;;;24.50;50.80;;;;;;4990668;28;88717;-83
2023/06/08 12:15:56;;;;;;;8.30;4.50;;;24.50;50.70;;;;;;4996686;28;87599;-83
2023/06/08 12:18:25;;;;;;;5.93;4.18;;;24.50;50.70;;;;;;4983051;28;87999;-84
2023/06/08 12:20:52;;;;;;;5.80;4.25;;;24.50;50.70;;;;;;5001168;28;88425;-89
2023/06/08 12:23:19;;;;;;;8.15;4.88;;;24.50;50.70;;;;;;4994733;28;87740;-85
2023/06/08 12:25:54;;;;;;;5.97;4.25;;;24.60;50.90;;;;;;4993254;28;88387;-85
2023/06/08 12:28:23;;;;;;;6.63;4.30;;;24.60;50.80;;;;;;5003898;28;87763;-89
2023/06/08 12:30:51;;;;;;;7.05;4.60;;;24.60;50.90;;;;;;4986289;28;90706;-92
2023/06/08 12:33:19;;;;;;;7.00;5.03;;;24.60;51.10;;;;;;4977088;28;89722;-87
2023/06/08 12:35:45;;;;;;;8.38;3.97;;;24.70;51.20;;;;;;4987635;28;88881;-92
2023/06/08 12:38:11;;;;;;;7.80;4.55;;;24.60;51.20;;;;;;4987756;28;87081;-92
2023/06/08 12:40:37;;;;;;;7.30;4.25;;;24.60;51.20;;;;;;4989478;28;90581;-88
2023/06/08 12:43:02;;;;;;;8.82;4.30;;;24.60;51.10;;;;;;5002877;28;90312;-89
2023/06/08 12:45:28;;;;;;;7.57;4.53;;;24.60;51.30;;;;;;4989932;28;87341;-89
2023/06/08 12:47:55;;;;;;;6.22;4.47;;;24.60;51.20;;;;;;4990935;28;88065;-91